Time;durP1;ratioP1;P1;durP2;ratioP2;P2;SDS_P1;SDS_P2;PMS_P1;PMS_P2;Temp;Humidity;BMP_temperature;BMP_pressure;BME280_temperature;BME280_humidity;BME280_pressure;Samples;Min_cycle;Max_cycle;Signal;HPM_P1;HPM_P2
2022/06/25 00:00:03;;;;;;;3.92;3.35;;;16.00;59.70;;;;;;7364415;19;20089;-60
2022/06/25 00:02:32;;;;;;;7.38;3.85;;;16.00;59.10;;;;;;7362913;19;20006;-60
2022/06/25 00:07:48;;;;;;;4.63;3.45;;;15.90;59.90;;;;;;7365825;19;20526;-61
2022/06/25 00:10:18;;;;;;;4.30;3.38;;;15.90;61.20;;;;;;7365001;19;20013;-60
2022/06/25 00:12:45;;;;;;;4.07;3.58;;;15.90;60.90;;;;;;7363128;19;20003;-60
2022/06/25 00:15:15;;;;;;;5.22;3.85;;;15.80;60.50;;;;;;7360971;19;20021;-61
2022/06/25 00:17:45;;;;;;;4.68;3.60;;;15.80;62.10;;;;;;7364762;19;20073;-61
2022/06/25 00:20:15;;;;;;;4.00;3.50;;;15.80;61.00;;;;;;7388021;19;20014;-61
2022/06/25 00:22:47;;;;;;;3.88;3.58;;;15.80;61.20;;;;;;7362258;19;20022;-60
2022/06/25 00:25:17;;;;;;;4.10;3.70;;;15.90;60.90;;;;;;7359992;19;20031;-60
2022/06/25 00:27:47;;;;;;;5.72;4.03;;;16.00;57.90;;;;;;7363831;19;20056;-60
2022/06/25 00:30:17;;;;;;;8.38;4.20;;;16.00;57.70;;;;;;7366498;19;20007;-60
2022/06/25 00:32:47;;;;;;;4.03;3.03;;;16.00;57.00;;;;;;7361755;19;20011;-60
2022/06/25 00:35:17;;;;;;;8.65;3.67;;;16.00;57.00;;;;;;7382847;19;20021;-61
2022/06/25 00:37:50;;;;;;;3.85;3.33;;;15.90;57.70;;;;;;7364994;19;20105;-60
2022/06/25 00:40:20;;;;;;;4.40;3.28;;;15.80;58.50;;;;;;7365674;19;20078;-60
2022/06/25 00:42:51;;;;;;;8.70;3.75;;;15.90;57.70;;;;;;7361816;19;20588;-61
2022/06/25 00:45:21;;;;;;;4.38;3.22;;;15.80;57.80;;;;;;7361002;19;20043;-61
2022/06/25 00:47:51;;;;;;;5.07;3.08;;;15.80;57.90;;;;;;7364999;19;20474;-61
2022/06/25 00:50:21;;;;;;;7.05;3.50;;;15.70;58.50;;;;;;7387898;19;20014;-61
2022/06/25 00:53:00;;;;;;;3.70;3.22;;;15.70;58.60;;;;;;7360717;19;20010;-61
2022/06/25 00:55:32;;;;;;;4.50;3.22;;;15.70;59.30;;;;;;7360375;19;20010;-61
2022/06/25 00:58:02;;;;;;;5.18;3.10;;;15.70;58.70;;;;;;7364645;19;20027;-61
2022/06/25 01:00:32;;;;;;;3.80;2.97;;;15.70;59.00;;;;;;7365783;19;20010;-61
2022/06/25 01:03:02;;;;;;;6.95;3.15;;;15.70;59.80;;;;;;7358575;19;20031;-61
2022/06/25 01:05:32;;;;;;;5.18;3.40;;;15.70;59.10;;;;;;7361466;19;20520;-61
2022/06/25 01:08:06;;;;;;;6.88;3.00;;;15.70;58.60;;;;;;7385603;19;20025;-61
2022/06/25 01:10:36;;;;;;;4.50;3.35;;;15.70;59.20;;;;;;7365254;19;20085;-61
2022/06/25 01:13:05;;;;;;;3.40;3.10;;;15.60;59.60;;;;;;7358393;19;20018;-61
2022/06/25 01:15:35;;;;;;;4.93;3.30;;;15.60;59.20;;;;;;7359442;19;20019;-60
2022/06/25 01:18:07;;;;;;;5.28;3.53;;;15.60;60.60;;;;;;7364157;19;20045;-60
2022/06/25 01:20:37;;;;;;;3.92;3.38;;;15.60;60.50;;;;;;7365947;19;20082;-61
2022/06/25 01:23:10;;;;;;;3.80;3.13;;;15.50;60.40;;;;;;7387250;19;20092;-61
2022/06/25 01:25:41;;;;;;;5.82;3.25;;;15.60;60.80;;;;;;7367313;19;20493;-61
2022/06/25 01:28:11;;;;;;;4.05;3.15;;;15.60;59.40;;;;;;7371141;19;20176;-61
2022/06/25 01:30:41;;;;;;;5.68;3.20;;;15.60;59.20;;;;;;7371449;19;20022;-60
2022/06/25 01:33:11;;;;;;;3.42;3.13;;;15.70;58.80;;;;;;7365391;19;20024;-60
2022/06/25 01:35:41;;;;;;;3.45;2.92;;;15.70;58.60;;;;;;7367248;19;20018;-61
2022/06/25 01:38:14;;;;;;;4.38;2.90;;;15.70;57.10;;;;;;7392981;19;20006;-60
2022/06/25 01:40:44;;;;;;;3.72;3.15;;;15.60;56.60;;;;;;7371418;19;20021;-61
2022/06/25 01:43:13;;;;;;;4.85;3.00;;;15.60;56.30;;;;;;7363670;19;21158;-61
2022/06/25 01:45:43;;;;;;;5.05;3.00;;;15.60;56.30;;;;;;7366559;19;20018;-61
2022/06/25 01:48:14;;;;;;;5.35;3.60;;;15.60;55.80;;;;;;7370473;19;20010;-61
2022/06/25 01:50:44;;;;;;;3.58;3.15;;;15.60;55.00;;;;;;7370508;19;20335;-61
2022/06/25 01:53:17;;;;;;;4.05;3.33;;;15.60;55.10;;;;;;7385761;19;20534;-61
2022/06/25 01:55:47;;;;;;;4.85;3.20;;;15.60;56.40;;;;;;7365954;19;20010;-61
2022/06/25 01:58:17;;;;;;;8.43;2.92;;;15.60;55.20;;;;;;7370827;19;20438;-61
2022/06/25 02:00:47;;;;;;;6.43;2.60;;;15.60;55.60;;;;;;7370553;19;20078;-61
2022/06/25 02:03:17;;;;;;;5.93;2.60;;;15.60;54.40;;;;;;7364954;19;20022;-61
2022/06/25 02:05:59;;;;;;;3.72;2.95;;;15.60;55.10;;;;;;7365350;19;20014;-62
2022/06/25 02:08:34;;;;;;;3.00;2.38;;;15.60;54.50;;;;;;7369937;19;20010;-62
2022/06/25 02:11:09;;;;;;;4.55;2.50;;;15.70;53.60;;;;;;7392483;19;20026;-61
2022/06/25 02:13:38;;;;;;;;;;;15.60;52.70;;;;;;7366899;19;20011;-60
2022/06/25 02:16:09;;;;;;;3.42;2.78;;;15.70;52.70;;;;;;7363344;19;19921;-60
2022/06/25 02:18:39;;;;;;;2.83;2.63;;;15.60;51.30;;;;;;7370566;19;20010;-59
2022/06/25 02:21:09;;;;;;;5.68;2.80;;;15.60;52.80;;;;;;7368222;19;20541;-60
2022/06/25 02:23:41;;;;;;;4.75;3.03;;;15.50;53.50;;;;;;7366589;19;20074;-60
2022/06/25 02:26:11;;;;;;;4.18;2.80;;;15.50;54.00;;;;;;7386332;19;20014;-60
2022/06/25 02:28:41;;;;;;;4.47;2.85;;;15.40;54.30;;;;;;7368649;19;20025;-61
2022/06/25 02:31:11;;;;;;;3.92;2.65;;;15.50;54.30;;;;;;7367788;19;20522;-60
2022/06/25 02:33:42;;;;;;;3.72;2.85;;;15.40;54.10;;;;;;7364819;19;20351;-60
2022/06/25 02:36:12;;;;;;;4.15;2.75;;;15.40;54.20;;;;;;7365306;19;20010;-61
2022/06/25 02:38:45;;;;;;;5.50;3.10;;;15.40;54.90;;;;;;7369681;19;20054;-61
2022/06/25 02:41:14;;;;;;;3.90;3.00;;;15.30;54.20;;;;;;7389069;19;20017;-61
2022/06/25 02:43:44;;;;;;;5.80;2.80;;;15.30;56.00;;;;;;7364991;19;20480;-61
2022/06/25 02:46:14;;;;;;;4.78;3.00;;;15.30;56.20;;;;;;7363494;19;20006;-61
2022/06/25 02:48:44;;;;;;;4.43;3.20;;;15.40;55.40;;;;;;7367759;19;20059;-61
2022/06/25 02:51:14;;;;;;;3.38;3.03;;;15.30;54.80;;;;;;7365425;19;20402;-61
2022/06/25 02:53:47;;;;;;;2.47;2.28;;;15.30;54.90;;;;;;7366138;19;20004;-61
2022/06/25 02:58:59;;;;;;;2.75;2.45;;;15.40;53.80;;;;;;7369003;19;20490;-59
2022/06/25 03:01:30;;;;;;;3.30;2.70;;;15.30;52.80;;;;;;7365326;19;20723;-60
2022/06/25 03:04:01;;;;;;;3.00;2.70;;;15.40;53.00;;;;;;7365222;19;21438;-60
2022/06/25 03:06:32;;;;;;;3.60;2.92;;;15.40;52.40;;;;;;7363686;19;20014;-60
2022/06/25 03:09:05;;;;;;;4.55;3.30;;;15.40;52.70;;;;;;7369012;19;20010;-61
2022/06/25 03:11:35;;;;;;;6.40;2.50;;;15.40;52.00;;;;;;7367294;19;20092;-60
2022/06/25 03:14:05;;;;;;;3.40;2.78;;;15.40;51.20;;;;;;7386114;19;20046;-60
2022/06/25 03:16:35;;;;;;;5.28;2.40;;;15.40;50.80;;;;;;7361470;19;20018;-60
2022/06/25 03:19:05;;;;;;;4.85;2.47;;;15.40;50.50;;;;;;7367985;19;20023;-60
2022/06/25 03:21:35;;;;;;;3.53;2.17;;;15.40;49.00;;;;;;7367248;19;20018;-60
2022/06/25 03:24:08;;;;;;;4.13;2.47;;;15.40;48.80;;;;;;7364256;19;20573;-60
2022/06/25 03:26:38;;;;;;;4.32;2.45;;;15.40;48.40;;;;;;7361804;19;20522;-60
2022/06/25 03:29:08;;;;;;;3.67;2.05;;;15.40;49.60;;;;;;7388688;19;20014;-60
2022/06/25 03:31:38;;;;;;;3.15;2.65;;;15.30;49.80;;;;;;7366157;19;20026;-60
2022/06/25 03:34:08;;;;;;;4.65;2.33;;;15.30;50.70;;;;;;7363931;19;20013;-60
2022/06/25 03:36:38;;;;;;;6.72;2.30;;;15.40;49.70;;;;;;7362778;19;20006;-60
2022/06/25 03:39:11;;;;;;;4.90;2.00;;;15.40;50.20;;;;;;7367186;19;20477;-60
2022/06/25 03:41:40;;;;;;;3.90;2.28;;;15.30;47.90;;;;;;7365965;19;20654;-60
2022/06/25 03:44:12;;;;;;;3.70;2.25;;;15.40;49.80;;;;;;7382242;19;20094;-60
2022/06/25 03:46:42;;;;;;;4.30;2.58;;;15.30;49.90;;;;;;7360817;19;21212;-61
2022/06/25 03:49:12;;;;;;;3.13;2.63;;;15.40;50.10;;;;;;7367091;19;20038;-61
2022/06/25 03:51:42;;;;;;;5.47;2.42;;;15.70;46.30;;;;;;7363710;19;20352;-61
2022/06/25 03:54:14;;;;;;;1.92;1.70;;;16.70;36.50;;;;;;7363074;19;20017;-61
2022/06/25 03:56:44;;;;;;;2.22;1.75;;;17.70;24.60;;;;;;7361489;19;20141;-61
2022/06/25 03:59:14;;;;;;;3.50;1.90;;;17.70;17.30;;;;;;7388551;19;20020;-61
2022/06/25 04:01:44;;;;;;;4.70;2.10;;;18.10;16.60;;;;;;7364883;19;20017;-60
2022/06/25 04:04:14;;;;;;;2.63;1.83;;;18.70;15.00;;;;;;7362560;19;20572;-61
2022/06/25 04:06:45;;;;;;;3.42;2.50;;;18.90;11.10;;;;;;7361684;19;20115;-60
2022/06/25 04:09:17;;;;;;;2.60;2.40;;;19.20;8.80;;;;;;7365853;19;20003;-60
2022/06/25 04:11:47;;;;;;;3.72;1.98;;;18.80;8.00;;;;;;7365148;19;20478;-61
2022/06/25 04:14:17;;;;;;;3.30;2.00;;;18.50;6.50;;;;;;7384646;19;20006;-60
2022/06/25 04:16:47;;;;;;;4.88;2.45;;;19.60;7.50;;;;;;7361408;19;20017;-60
2022/06/25 04:19:17;;;;;;;3.15;1.90;;;20.30;3.80;;;;;;7365953;19;20018;-61
2022/06/25 04:21:49;;;;;;;8.38;2.42;;;20.70;1.00;;;;;;7364073;19;20025;-61
2022/06/25 04:24:21;;;;;;;6.13;1.90;;;20.10;2.30;;;;;;7362873;19;20064;-61
2022/06/25 04:26:51;;;;;;;3.70;2.08;;;19.20;1.00;;;;;;7362419;19;20014;-61
2022/06/25 04:29:18;;;;;;;7.88;2.88;;;20.10;2.50;;;;;;7387281;19;20077;-61
2022/06/25 04:31:48;;;;;;;6.32;2.33;;;20.10;2.30;;;;;;7361860;19;20353;-61
2022/06/25 04:34:18;;;;;;;2.75;1.83;;;20.90;1.00;;;;;;7361990;19;20011;-61
2022/06/25 04:36:48;;;;;;;2.50;1.48;;;20.00;1.00;;;;;;7362574;19;20013;-61
2022/06/25 04:39:21;;;;;;;3.38;1.80;;;20.70;1.00;;;;;;7365601;19;20025;-61
2022/06/25 04:41:50;;;;;;;4.30;1.80;;;21.70;1.00;;;;;;7361925;19;20017;-61
2022/06/25 04:44:20;;;;;;;4.32;1.83;;;21.60;1.00;;;;;;7383844;19;20633;-61
2022/06/25 04:46:50;;;;;;;1.48;1.38;;;22.30;1.00;;;;;;7361108;19;20006;-60
2022/06/25 04:49:20;;;;;;;4.05;1.45;;;22.80;1.00;;;;;;7365214;19;20007;-60
2022/06/25 04:51:50;;;;;;;4.75;1.40;;;22.20;1.00;;;;;;7363184;19;20014;-60
2022/06/25 04:54:22;;;;;;;1.90;1.25;;;23.10;1.00;;;;;;7361193;19;20017;-60
2022/06/25 04:56:52;;;;;;;4.82;1.50;;;22.50;1.00;;;;;;7365215;19;20074;-61
2022/06/25 04:59:22;;;;;;;2.67;1.52;;;22.40;1.00;;;;;;7395056;19;20020;-59
2022/06/25 05:01:52;;;;;;;1.55;1.30;;;23.20;1.00;;;;;;7370393;19;20010;-59
2022/06/25 05:04:22;;;;;;;2.97;1.45;;;23.30;1.00;;;;;;7369016;19;20038;-59
2022/06/25 05:06:53;;;;;;;5.38;1.50;;;22.90;1.00;;;;;;7369918;19;20047;-61
2022/06/25 05:09:25;;;;;;;3.22;1.27;;;22.70;1.00;;;;;;7371404;19;20006;-60
2022/06/25 05:11:55;;;;;;;5.65;1.85;;;23.10;1.00;;;;;;7368353;19;20078;-60
2022/06/25 05:14:25;;;;;;;6.68;1.70;;;22.90;1.00;;;;;;7367763;19;20011;-61
2022/06/25 05:16:55;;;;;;;15.95;14.60;;;22.90;1.00;;;;;;7389717;19;20014;-60
2022/06/25 05:19:26;;;;;;;7.65;6.95;;;22.20;1.00;;;;;;7371904;19;20010;-60
2022/06/25 05:21:55;;;;;;;6.50;5.90;;;22.90;1.00;;;;;;7369375;19;20086;-61
2022/06/25 05:24:28;;;;;;;6.32;5.00;;;23.70;1.00;;;;;;7366769;19;20010;-60
2022/06/25 05:26:58;;;;;;;5.45;4.82;;;24.00;1.00;;;;;;7367487;19;20876;-61
2022/06/25 05:29:28;;;;;;;4.60;4.20;;;24.20;1.00;;;;;;7371196;19;20482;-61
2022/06/25 05:32:01;;;;;;;6.38;3.45;;;23.00;1.00;;;;;;7388632;19;20474;-61
2022/06/25 05:34:31;;;;;;;3.72;2.70;;;23.60;1.00;;;;;;7364600;19;20111;-61
2022/06/25 05:37:01;;;;;;;3.80;2.35;;;23.50;1.00;;;;;;7366047;19;20010;-61
2022/06/25 05:39:33;;;;;;;3.83;1.90;;;23.30;1.00;;;;;;7369143;19;20086;-62
2022/06/25 05:42:03;;;;;;;4.15;1.95;;;22.80;1.00;;;;;;7369189;19;20022;-61
2022/06/25 05:44:33;;;;;;;3.45;2.00;;;23.40;1.00;;;;;;7364563;19;20017;-62
2022/06/25 05:47:03;;;;;;;2.45;1.60;;;23.40;1.00;;;;;;7388731;19;20011;-61
2022/06/25 05:49:33;;;;;;;3.13;1.50;;;23.10;1.00;;;;;;7370429;19;20014;-60
2022/06/25 05:52:03;;;;;;;2.85;1.65;;;22.70;1.00;;;;;;7367581;19;20013;-60
2022/06/25 05:54:35;;;;;;;2.03;1.88;;;23.10;1.00;;;;;;7363109;19;20011;-60
2022/06/25 05:57:07;;;;;;;4.63;1.90;;;23.00;1.00;;;;;;7367827;19;20031;-60
2022/06/25 05:59:37;;;;;;;2.47;2.00;;;23.00;1.00;;;;;;7370717;19;20006;-61
2022/06/25 06:02:07;;;;;;;1.95;1.60;;;23.20;1.00;;;;;;7390414;19;20014;-61
2022/06/25 06:04:37;;;;;;;3.28;1.80;;;22.90;1.00;;;;;;7362931;19;20513;-61
2022/06/25 06:07:08;;;;;;;6.25;1.92;;;21.90;1.00;;;;;;7367207;19;20346;-61
2022/06/25 06:09:40;;;;;;;4.05;1.80;;;20.70;1.00;;;;;;7369001;19;20079;-61
2022/06/25 06:12:10;;;;;;;5.63;1.60;;;20.40;1.00;;;;;;7366893;19;20528;-61
2022/06/25 06:14:40;;;;;;;2.92;1.70;;;19.70;2.30;;;;;;7363769;19;20014;-61
2022/06/25 06:17:10;;;;;;;2.88;1.65;;;20.30;1.40;;;;;;7388246;19;20011;-60
2022/06/25 06:19:40;;;;;;;2.85;1.80;;;20.10;1.00;;;;;;7369056;19;20014;-61
2022/06/25 06:22:10;;;;;;;2.50;1.73;;;20.50;1.00;;;;;;7367441;19;20021;-61
2022/06/25 06:24:49;;;;;;;3.97;1.90;;;20.50;1.80;;;;;;7363632;19;20010;-61
2022/06/25 06:27:19;;;;;;;2.95;1.75;;;20.40;2.90;;;;;;7367064;19;21035;-60
2022/06/25 06:29:49;;;;;;;2.17;1.67;;;20.70;1.10;;;;;;7370167;19;20114;-60
2022/06/25 06:32:19;;;;;;;1.77;1.35;;;20.60;1.00;;;;;;7387499;19;20469;-60
2022/06/25 06:34:48;;;;;;;3.60;1.50;;;20.80;1.00;;;;;;7361651;19;20013;-60
2022/06/25 06:37:18;;;;;;;2.88;1.40;;;21.10;1.00;;;;;;7366258;19;20477;-61
2022/06/25 06:39:52;;;;;;;4.53;2.10;;;21.30;1.00;;;;;;7369145;19;20015;-61
2022/06/25 06:42:22;;;;;;;1.77;1.23;;;21.70;1.00;;;;;;7368137;19;20027;-60
2022/06/25 06:44:52;;;;;;;4.82;1.65;;;21.60;1.00;;;;;;7363114;19;20006;-60
2022/06/25 06:47:22;;;;;;;3.90;1.42;;;21.70;1.00;;;;;;7386497;19;20017;-60
2022/06/25 06:49:51;;;;;;;4.78;1.63;;;21.10;1.00;;;;;;7368219;19;20342;-60
2022/06/25 06:52:21;;;;;;;2.97;1.30;;;20.80;1.00;;;;;;7364241;19;20017;-61
2022/06/25 06:54:54;;;;;;;3.30;1.55;;;21.30;1.00;;;;;;7362271;19;20014;-61
2022/06/25 06:57:23;;;;;;;2.42;1.48;;;21.30;1.00;;;;;;7364512;19;20497;-61
2022/06/25 06:59:53;;;;;;;3.45;1.70;;;21.10;1.00;;;;;;7367923;19;20021;-61
2022/06/25 07:02:23;;;;;;;4.03;1.65;;;21.40;1.00;;;;;;7382354;19;20010;-61
2022/06/25 07:04:53;;;;;;;3.88;1.65;;;21.50;1.00;;;;;;7383261;19;20013;-61
2022/06/25 07:07:23;;;;;;;1.77;1.45;;;21.50;1.00;;;;;;7366770;19;20044;-62
2022/06/25 07:09:56;;;;;;;1.98;1.73;;;21.50;1.00;;;;;;7367554;19;20126;-60
2022/06/25 07:12:26;;;;;;;2.97;1.25;;;21.60;1.00;;;;;;7365192;19;20450;-62
2022/06/25 07:14:55;;;;;;;2.08;1.58;;;21.60;1.00;;;;;;7361808;19;20011;-61
2022/06/25 07:17:25;;;;;;;2.15;1.50;;;21.90;1.00;;;;;;7365510;19;20025;-62
2022/06/25 07:19:55;;;;;;;2.10;1.27;;;22.20;1.00;;;;;;7388389;19;20018;-60
2022/06/25 07:22:25;;;;;;;3.15;1.58;;;22.20;1.00;;;;;;7364425;19;20015;-61
2022/06/25 07:24:57;;;;;;;1.98;1.40;;;22.00;1.00;;;;;;7359201;19;20040;-60
2022/06/25 07:27:28;;;;;;;2.38;1.70;;;22.20;1.00;;;;;;7366621;19;21139;-61
2022/06/25 07:29:58;;;;;;;2.50;1.30;;;21.80;1.00;;;;;;7366095;19;20019;-61
2022/06/25 07:32:28;;;;;;;1.50;1.10;;;21.50;1.00;;;;;;7360040;19;20367;-61
2022/06/25 07:34:58;;;;;;;3.22;1.40;;;21.50;1.00;;;;;;7379820;19;20011;-61
2022/06/25 07:37:28;;;;;;;2.75;1.30;;;21.30;1.00;;;;;;7365327;19;20013;-61
2022/06/25 07:40:01;;;;;;;1.83;1.70;;;21.60;1.00;;;;;;7366969;19;20014;-61
2022/06/25 07:42:31;;;;;;;3.95;1.52;;;21.80;1.00;;;;;;7365426;19;20010;-61
2022/06/25 07:45:03;;;;;;;4.90;1.88;;;22.10;1.00;;;;;;7358397;19;20048;-61
2022/06/25 07:47:38;;;;;;;2.83;1.30;;;22.50;1.00;;;;;;7363159;19;20569;-62
2022/06/25 07:53:02;;;;;;;2.90;1.30;;;21.80;1.00;;;;;;7358663;19;20024;-60
2022/06/25 07:55:34;;;;;;;2.20;1.45;;;22.30;1.00;;;;;;7360692;19;20018;-60
2022/06/25 07:58:04;;;;;;;1.88;1.50;;;21.60;1.00;;;;;;7364626;19;20074;-60
2022/06/25 08:00:34;;;;;;;2.70;1.40;;;21.20;1.00;;;;;;7366080;19;20011;-61
2022/06/25 08:03:05;;;;;;;3.58;2.38;;;22.10;1.00;;;;;;7361039;19;20078;-61
2022/06/25 08:05:35;;;;;;;2.65;1.40;;;22.10;1.00;;;;;;7361693;19;20038;-61
2022/06/25 08:08:07;;;;;;;2.15;1.40;;;22.20;1.00;;;;;;7386940;19;20023;-62
2022/06/25 08:10:39;;;;;;;3.10;1.40;;;22.50;1.00;;;;;;7365416;19;20006;-62
2022/06/25 08:13:09;;;;;;;1.90;1.52;;;22.30;1.00;;;;;;7359951;19;20526;-60
2022/06/25 08:15:39;;;;;;;4.25;1.30;;;21.50;1.00;;;;;;7360123;19;20083;-61
2022/06/25 08:18:09;;;;;;;6.57;1.50;;;21.50;1.00;;;;;;7365139;19;21130;-62
2022/06/25 08:20:39;;;;;;;3.10;1.48;;;22.10;1.00;;;;;;7365720;19;20015;-62
2022/06/25 08:23:09;;;;;;;2.20;1.30;;;22.80;1.00;;;;;;7382969;19;20017;-61
2022/06/25 08:25:42;;;;;;;2.67;1.67;;;22.90;1.00;;;;;;7358016;19;20018;-61
2022/06/25 08:28:12;;;;;;;3.40;1.58;;;23.00;1.00;;;;;;7364568;19;20489;-62
2022/06/25 08:30:43;;;;;;;3.40;1.50;;;23.50;1.00;;;;;;7366325;19;20019;-61
2022/06/25 08:33:14;;;;;;;2.97;1.50;;;23.60;1.00;;;;;;7365917;19;20010;-62
2022/06/25 08:35:46;;;;;;;3.20;1.20;;;23.60;1.00;;;;;;7366288;19;20003;-61
2022/06/25 08:38:16;;;;;;;3.80;1.67;;;23.40;1.00;;;;;;7394666;19;20011;-61
2022/06/25 08:40:49;;;;;;;2.60;1.52;;;23.40;1.00;;;;;;7372459;19;20070;-62
2022/06/25 08:43:19;;;;;;;4.40;1.60;;;23.70;1.00;;;;;;7367900;19;20041;-60
2022/06/25 08:45:49;;;;;;;1.58;1.27;;;23.40;1.00;;;;;;7367553;19;20022;-61
2022/06/25 08:48:24;;;;;;;5.57;1.60;;;22.90;1.00;;;;;;7370626;19;20099;-62
2022/06/25 08:50:54;;;;;;;1.67;1.40;;;23.00;1.00;;;;;;7372873;19;20010;-60
2022/06/25 08:53:25;;;;;;;3.28;1.77;;;23.40;1.00;;;;;;7374622;19;20034;-61
2022/06/25 08:55:57;;;;;;;3.10;1.58;;;22.90;1.00;;;;;;7387770;19;20082;-62
2022/06/25 08:58:31;;;;;;;2.75;1.65;;;22.60;1.00;;;;;;7371789;19;20018;-64
2022/06/25 09:01:01;;;;;;;1.90;1.80;;;22.30;1.00;;;;;;7370057;19;20017;-62
2022/06/25 09:03:31;;;;;;;3.13;1.48;;;22.60;1.00;;;;;;7366546;19;20006;-61
2022/06/25 09:06:14;;;;;;;2.40;1.48;;;23.40;1.00;;;;;;7366436;19;20010;-63
2022/06/25 09:08:45;;;;;;;4.68;1.52;;;23.00;1.00;;;;;;7370735;19;20068;-62
2022/06/25 09:11:18;;;;;;;3.42;1.85;;;23.80;1.00;;;;;;7391025;19;20089;-62
2022/06/25 09:13:47;;;;;;;3.67;1.50;;;23.60;1.00;;;;;;7365647;19;20195;-61
2022/06/25 09:16:26;;;;;;;2.50;1.65;;;23.70;1.00;;;;;;7364617;19;20025;-62
2022/06/25 09:18:56;;;;;;;3.13;1.60;;;23.90;1.00;;;;;;7369221;19;20498;-62
2022/06/25 09:21:26;;;;;;;4.80;1.60;;;24.10;1.00;;;;;;7366190;19;20106;-61
2022/06/25 09:24:01;;;;;;;2.30;1.48;;;24.30;1.00;;;;;;7367304;19;20014;-61
2022/06/25 09:26:34;;;;;;;3.58;1.70;;;24.50;1.00;;;;;;7365228;19;20025;-62
2022/06/25 09:29:04;;;;;;;3.40;1.67;;;23.90;1.00;;;;;;7392840;19;20011;-62
2022/06/25 09:31:38;;;;;;;4.32;1.40;;;23.50;1.00;;;;;;7368061;19;20090;-62
2022/06/25 09:34:10;;;;;;;3.72;1.45;;;24.70;1.00;;;;;;7368510;19;20033;-61
2022/06/25 09:36:41;;;;;;;3.58;1.35;;;24.90;1.00;;;;;;7367036;19;20013;-60
2022/06/25 09:39:11;;;;;;;2.75;1.23;;;24.60;1.00;;;;;;7364070;19;20010;-59
2022/06/25 09:41:54;;;;;;;2.63;1.10;;;25.20;1.00;;;;;;7361666;19;20122;-61
2022/06/25 09:44:24;;;;;;;1.98;1.33;;;25.30;1.00;;;;;;7374359;19;20022;-62
2022/06/25 09:46:57;;;;;;;1.33;1.20;;;25.50;1.00;;;;;;7383380;19;20380;-61
2022/06/25 09:49:28;;;;;;;;;;;25.60;1.00;;;;;;7365627;19;20022;-61
2022/06/25 09:52:01;;;;;;;2.60;1.10;;;25.50;1.00;;;;;;7363944;19;20206;-62
2022/06/25 09:54:31;;;;;;;2.67;1.30;;;25.30;1.00;;;;;;7362774;19;20019;-61
2022/06/25 09:57:05;;;;;;;2.58;1.20;;;25.70;1.00;;;;;;7361373;19;20486;-62
2022/06/25 09:59:39;;;;;;;2.25;1.10;;;25.50;1.00;;;;;;7365723;19;21177;-62
2022/06/25 10:02:09;;;;;;;3.22;1.40;;;25.70;1.00;;;;;;7385170;19;20027;-61
2022/06/25 10:04:40;;;;;;;4.65;1.30;;;24.90;1.00;;;;;;7362825;19;20026;-61
2022/06/25 10:07:12;;;;;;;2.45;1.30;;;25.70;1.00;;;;;;7362564;19;20027;-61
2022/06/25 10:09:44;;;;;;;1.20;1.02;;;26.10;1.00;;;;;;7364879;19;20513;-62
2022/06/25 10:12:17;;;;;;;1.52;1.00;;;24.80;1.00;;;;;;7363704;19;20332;-61
2022/06/25 10:14:48;;;;;;;2.20;2.00;;;24.90;1.00;;;;;;7360905;19;20011;-60
2022/06/25 10:17:18;;;;;;;1.83;1.35;;;25.10;1.00;;;;;;7380586;19;20010;-61
2022/06/25 10:19:49;;;;;;;1.77;1.20;;;25.70;1.00;;;;;;7364688;19;20351;-62
2022/06/25 10:22:19;;;;;;;3.35;1.15;;;25.30;1.00;;;;;;7362813;19;20006;-61
2022/06/25 10:24:52;;;;;;;1.98;1.02;;;24.90;1.00;;;;;;7363306;19;20117;-62
2022/06/25 10:27:25;;;;;;;1.92;1.30;;;26.00;1.00;;;;;;7360142;19;20006;-62
2022/06/25 10:29:57;;;;;;;5.50;1.40;;;25.90;1.00;;;;;;7364798;19;20070;-60
2022/06/25 10:32:28;;;;;;;2.80;1.20;;;25.10;1.00;;;;;;7362775;19;20028;-63
2022/06/25 10:35:01;;;;;;;2.00;1.23;;;24.60;1.00;;;;;;7381859;19;20518;-61
2022/06/25 10:38:02;;;;;;;6.45;1.55;;;24.30;1.00;;;;;;7361207;19;20010;-62
2022/06/25 10:40:33;;;;;;;2.58;1.38;;;24.90;1.00;;;;;;7365070;19;20032;-62
2022/06/25 10:43:24;;;;;;;1.92;1.45;;;25.30;1.00;;;;;;7360062;19;20125;-62
2022/06/25 10:45:57;;;;;;;3.20;1.42;;;25.50;1.00;;;;;;7358380;19;20566;-62
2022/06/25 10:48:28;;;;;;;3.38;1.80;;;25.80;1.00;;;;;;7364464;19;20010;-62
2022/06/25 10:50:58;;;;;;;1.58;1.48;;;25.30;1.00;;;;;;7364470;19;20015;-61
2022/06/25 10:53:29;;;;;;;5.95;1.60;;;25.70;1.00;;;;;;7357314;19;20077;-62
2022/06/25 10:56:26;;;;;;;2.53;1.40;;;26.20;1.00;;;;;;7380433;19;20470;-61
2022/06/25 10:58:56;;;;;;;2.03;1.40;;;25.40;1.00;;;;;;7364781;19;20010;-61
2022/06/25 11:01:35;;;;;;;2.58;1.40;;;25.20;1.00;;;;;;7360260;19;20010;-62
2022/06/25 11:04:10;;;;;;;4.68;1.85;;;25.50;1.00;;;;;;7360183;19;20474;-61
2022/06/25 11:06:41;;;;;;;2.10;1.30;;;25.80;1.00;;;;;;7360704;19;20006;-61
2022/06/25 11:09:14;;;;;;;1.27;1.15;;;25.20;1.00;;;;;;7364333;19;20007;-62
2022/06/25 11:11:47;;;;;;;4.07;1.45;;;25.80;1.00;;;;;;7360976;19;20458;-62
2022/06/25 11:14:24;;;;;;;4.22;1.60;;;26.00;1.00;;;;;;7382142;19;20416;-62
2022/06/25 11:16:58;;;;;;;3.20;1.98;;;25.30;1.00;;;;;;7357890;19;20010;-63
2022/06/25 11:19:37;;;;;;;2.10;1.55;;;25.80;1.00;;;;;;7364091;19;20006;-63
2022/06/25 11:22:07;;;;;;;;;;;25.80;1.00;;;;;;7361899;19;20021;-62
2022/06/25 11:28:47;;;;;;;1.80;1.30;;;25.90;1.00;;;;;;7361056;19;20359;-61
2022/06/25 11:30:14;;;;;;;4.00;1.40;;;26.10;1.00;;;;;;7362158;19;20081;-62
2022/06/25 11:32:48;;;;;;;3.92;1.63;;;26.20;1.00;;;;;;7361686;19;20004;-62
2022/06/25 11:35:18;;;;;;;3.42;1.23;;;26.50;1.00;;;;;;7381500;19;20010;-62
2022/06/25 11:37:48;;;;;;;2.53;1.35;;;26.70;1.00;;;;;;7359755;19;20007;-61
2022/06/25 11:40:19;;;;;;;2.20;1.38;;;26.50;1.00;;;;;;7361607;19;20003;-62
2022/06/25 11:42:50;;;;;;;4.50;1.42;;;26.30;1.00;;;;;;7360161;19;20418;-62
2022/06/25 11:45:20;;;;;;;1.70;1.33;;;26.40;1.00;;;;;;7360320;19;20094;-61
2022/06/25 11:47:53;;;;;;;3.70;1.60;;;26.60;1.00;;;;;;7360418;19;20006;-62
2022/06/25 11:50:23;;;;;;;2.97;1.35;;;26.70;1.00;;;;;;7385311;19;20021;-62
2022/06/25 11:52:53;;;;;;;2.75;1.30;;;26.20;1.00;;;;;;7357402;19;20010;-62
2022/06/25 11:55:23;;;;;;;3.53;1.65;;;25.80;1.00;;;;;;7357788;19;20018;-61
2022/06/25 11:57:52;;;;;;;2.58;1.45;;;25.80;1.00;;;;;;7358563;19;20007;-63
2022/06/25 12:00:22;;;;;;;3.80;1.40;;;26.60;1.00;;;;;;7360758;19;20421;-62
2022/06/25 12:03:03;;;;;;;1.90;1.15;;;27.00;1.00;;;;;;7357315;19;20010;-62
2022/06/25 12:05:35;;;;;;;2.08;1.20;;;27.10;1.00;;;;;;7357774;19;20033;-62
2022/06/25 12:08:05;;;;;;;4.82;1.20;;;26.80;1.00;;;;;;7379270;19;20018;-62
2022/06/25 12:10:36;;;;;;;3.88;1.20;;;27.10;1.00;;;;;;7358751;19;20477;-62
2022/06/25 12:13:06;;;;;;;1.60;1.40;;;26.30;1.00;;;;;;7355494;19;20114;-62
2022/06/25 12:15:36;;;;;;;2.28;1.20;;;26.00;1.00;;;;;;7357832;19;20505;-63
2022/06/25 12:18:09;;;;;;;3.30;1.50;;;26.30;1.00;;;;;;7359549;19;20478;-63
2022/06/25 12:20:58;;;;;;;2.47;1.70;;;26.60;1.00;;;;;;7361673;19;20094;-64
2022/06/25 12:23:28;;;;;;;2.00;1.42;;;27.10;1.00;;;;;;7355597;19;20350;-63
2022/06/25 12:25:58;;;;;;;1.60;1.25;;;26.80;1.00;;;;;;7377196;19;20022;-63
2022/06/25 12:28:40;;;;;;;2.03;1.58;;;26.60;1.00;;;;;;7359912;19;20461;-63
2022/06/25 12:31:11;;;;;;;1.30;1.20;;;26.60;1.00;;;;;;7360028;19;20010;-63
2022/06/25 12:33:51;;;;;;;3.22;1.33;;;26.20;1.00;;;;;;7357996;19;20017;-61
2022/06/25 12:36:21;;;;;;;2.70;1.40;;;26.30;1.00;;;;;;7355103;19;20495;-63
2022/06/25 12:38:51;;;;;;;1.77;1.27;;;26.20;1.00;;;;;;7359751;19;20014;-61
2022/06/25 12:41:21;;;;;;;2.80;2.10;;;25.70;1.00;;;;;;7378189;19;20074;-62
2022/06/25 12:43:52;;;;;;;4.63;1.42;;;25.70;1.00;;;;;;7356837;19;20020;-63
2022/06/25 12:46:22;;;;;;;3.75;1.20;;;26.00;1.00;;;;;;7353920;19;20014;-61
2022/06/25 12:49:02;;;;;;;2.70;1.20;;;26.30;1.00;;;;;;7360627;19;20090;-62
2022/06/25 12:51:32;;;;;;;1.52;1.25;;;26.90;1.00;;;;;;7356647;19;20463;-63
2022/06/25 12:54:02;;;;;;;2.03;1.25;;;27.10;1.00;;;;;;7356126;19;20466;-62
2022/06/25 12:56:32;;;;;;;2.67;1.50;;;26.50;1.00;;;;;;7352845;19;20018;-62
2022/06/25 12:59:02;;;;;;;2.17;1.40;;;26.50;1.00;;;;;;7381017;19;20019;-63
2022/06/25 13:01:33;;;;;;;3.80;1.30;;;26.60;1.00;;;;;;7356094;19;20014;-62
2022/06/25 13:04:05;;;;;;;2.83;1.33;;;26.20;1.00;;;;;;7355137;19;20027;-63
2022/06/25 13:06:35;;;;;;;1.92;1.30;;;26.30;1.00;;;;;;7351386;19;20485;-63
2022/06/25 13:09:05;;;;;;;1.80;1.40;;;26.20;1.00;;;;;;7359551;19;20021;-62
2022/06/25 13:11:35;;;;;;;2.97;1.75;;;26.90;1.00;;;;;;7356165;19;20102;-62
2022/06/25 13:14:05;;;;;;;5.05;1.60;;;26.60;1.00;;;;;;7376292;19;20018;-62
2022/06/25 13:16:35;;;;;;;2.40;1.27;;;26.70;1.00;;;;;;7351788;19;20386;-63
2022/06/25 13:19:08;;;;;;;2.60;1.08;;;26.80;1.00;;;;;;7365649;19;20010;-63
2022/06/25 13:21:38;;;;;;;3.65;1.50;;;27.30;1.00;;;;;;7361303;19;20014;-61
2022/06/25 13:24:08;;;;;;;3.85;1.50;;;27.20;1.00;;;;;;7364611;19;20011;-64
2022/06/25 13:26:38;;;;;;;1.65;1.13;;;27.00;1.00;;;;;;7358549;19;20083;-63